CheckWX is a tool to help pilots better visualize weather data.  It is not intended as a substitute for an official pre-flight weather briefing.

12:25:35 UTC

SBDN TAF
Presidente Prudente Airport
Presidente Prudente, Brazil
TAF SBDN 220130Z 2206/2218 12010KT 9999 BKN015 TN18/2209Z TX31/2217Z RMK PEB

Mar-22@
06:00 UTC

Mar-22 @ 06:00 UTC

Mar-22@
18:00 UTC

Mar-22 @ 18:00 UTC

TAF SBDN 220130Z 2206/2218 12010KT 9999 BKN015 TN18/2209Z TX31/2217Z RMK PEB
Wind
  • 120° at 10 KTS
Cloud Levels
  • Broken at 1,500' AGL